Time;durP1;ratioP1;P1;durP2;ratioP2;P2;SDS_P1;SDS_P2;PMS_P1;PMS_P2;Temp;Humidity;BMP_temperature;BMP_pressure;BME280_temperature;BME280_humidity;BME280_pressure;Samples;Min_cycle;Max_cycle;Signal;HPM_P1;HPM_P2
2021/06/08 00:00:39;;;;;;;2.80;0.73;;;19.10;99.90;;;;;;4986492;28;20231;-91
2021/06/08 00:03:15;;;;;;;2.17;0.70;;;18.60;99.90;;;;;;4991431;28;20198;-96
2021/06/08 00:05:50;;;;;;;3.20;0.70;;;18.50;99.90;;;;;;4993425;28;20218;-95
2021/06/08 00:08:22;;;;;;;1.97;1.00;;;18.80;99.90;;;;;;4973871;28;20212;-96
2021/06/08 00:11:08;;;;;;;1.90;0.60;;;18.90;99.90;;;;;;4980311;28;20203;-95
2021/06/08 00:19:46;;;;;;;0.97;0.53;;;18.90;99.90;;;;;;5200028;23;20607;-96
2021/06/08 00:22:20;;;;;;;2.07;0.67;;;18.60;99.90;;;;;;4993471;28;20286;-96
2021/06/08 00:28:09;;;;;;;3.57;1.00;;;18.60;99.90;;;;;;4990452;28;20203;-96
2021/06/08 00:30:55;;;;;;;1.87;0.90;;;18.50;99.90;;;;;;4987000;28;20220;-96
2021/06/08 00:33:27;;;;;;;4.90;2.20;;;18.80;99.90;;;;;;4990713;28;20237;-96
2021/06/08 00:35:59;;;;;;;2.77;1.07;;;19.00;99.90;;;;;;4990347;28;20735;-96
2021/06/08 00:38:30;;;;;;;1.77;0.60;;;18.90;99.90;;;;;;4987105;28;20227;-95
2021/06/08 00:41:05;;;;;;;4.03;1.20;;;18.90;99.90;;;;;;4987067;28;20202;-96
2021/06/08 00:43:55;;;;;;;3.23;1.23;;;19.00;99.90;;;;;;5754234;23;20290;-94
2021/06/08 00:46:29;;;;;;;3.63;1.20;;;19.30;99.90;;;;;;4999411;28;20218;-92
2021/06/08 00:49:00;;;;;;;3.73;1.57;;;19.60;99.90;;;;;;5012227;28;20214;-93
2021/06/08 00:51:31;;;;;;;2.20;0.90;;;20.20;99.90;;;;;;4995992;28;20238;-85
2021/06/08 00:54:06;;;;;;;0.90;0.70;;;20.70;99.90;;;;;;5010337;28;20313;-86
2021/06/08 00:56:37;;;;;;;1.53;0.77;;;21.50;99.90;;;;;;5015392;28;20212;-87
2021/06/08 00:59:09;;;;;;;1.27;0.60;;;22.20;99.90;;;;;;5014705;28;20210;-86
2021/06/08 01:01:40;;;;;;;4.07;1.07;;;22.50;99.90;;;;;;5009477;28;20249;-86
2021/06/08 01:04:12;;;;;;;1.67;0.80;;;22.60;99.90;;;;;;4995085;28;20203;-87
2021/06/08 01:06:47;;;;;;;2.27;0.80;;;22.60;99.00;;;;;;4994627;28;20237;-86
2021/06/08 01:09:17;;;;;;;3.67;0.93;;;22.50;99.90;;;;;;4995427;28;20240;-86
2021/06/08 01:11:47;;;;;;;1.53;0.90;;;22.10;99.30;;;;;;5003291;28;20261;-84
2021/06/08 01:14:19;;;;;;;1.63;0.80;;;21.50;99.90;;;;;;5026460;28;20269;-86
2021/06/08 01:16:51;;;;;;;2.13;0.87;;;21.10;99.90;;;;;;5011652;28;20245;-86
2021/06/08 01:19:21;;;;;;;2.67;0.60;;;21.10;99.90;;;;;;4995446;28;20686;-86
2021/06/08 01:21:53;;;;;;;3.23;1.20;;;21.00;99.90;;;;;;5003801;28;20730;-87
2021/06/08 01:24:24;;;;;;;1.47;0.60;;;21.00;99.90;;;;;;5015170;28;20738;-86
2021/06/08 01:26:55;;;;;;;2.13;0.70;;;21.60;99.20;;;;;;4999524;28;20290;-86
2021/06/08 01:29:28;;;;;;;1.90;0.70;;;22.00;98.50;;;;;;4995727;28;20210;-87
2021/06/08 01:31:59;;;;;;;2.33;0.80;;;22.10;99.90;;;;;;5015945;28;20226;-86
2021/06/08 01:34:31;;;;;;;1.97;0.70;;;22.30;99.80;;;;;;5017481;28;20206;-87
2021/06/08 01:37:05;;;;;;;3.03;0.83;;;22.40;99.90;;;;;;5010966;28;20206;-87
2021/06/08 01:39:38;;;;;;;2.43;0.90;;;22.80;99.20;;;;;;5000326;28;20221;-86
2021/06/08 01:42:09;;;;;;;1.37;0.80;;;23.00;98.60;;;;;;5011751;28;20233;-86
2021/06/08 01:44:43;;;;;;;1.40;0.87;;;23.10;97.80;;;;;;4997799;28;20614;-86
2021/06/08 01:47:15;;;;;;;5.03;1.00;;;22.70;98.10;;;;;;4995770;28;20281;-86
2021/06/08 01:49:45;;;;;;;2.50;0.80;;;21.70;98.70;;;;;;4995135;28;20233;-85
2021/06/08 01:52:24;;;;;;;1.47;0.70;;;21.60;99.40;;;;;;5000553;28;20237;-86
2021/06/08 01:55:01;;;;;;;1.70;0.70;;;21.10;99.90;;;;;;5031474;28;20307;-85
2021/06/08 01:57:39;;;;;;;1.80;0.73;;;20.90;99.40;;;;;;5033448;28;20208;-86
2021/06/08 02:00:13;;;;;;;1.57;0.70;;;20.10;99.90;;;;;;5033514;28;20303;-86
2021/06/08 02:02:56;;;;;;;1.33;0.80;;;19.50;99.90;;;;;;4995299;28;20265;-88
2021/06/08 02:05:47;;;;;;;2.67;0.60;;;18.90;99.90;;;;;;5008157;28;20202;-89
2021/06/08 02:08:41;;;;;;;1.60;0.60;;;19.00;99.90;;;;;;5003101;28;20653;-89
2021/06/08 02:11:14;;;;;;;2.00;0.50;;;19.20;99.90;;;;;;5003350;28;20243;-89
2021/06/08 02:13:51;;;;;;;1.03;0.70;;;19.30;99.90;;;;;;5007476;28;20303;-89
2021/06/08 02:16:26;;;;;;;1.10;0.50;;;19.60;99.90;;;;;;5014587;28;20209;-89
2021/06/08 02:18:57;;;;;;;1.17;0.60;;;19.50;99.90;;;;;;5014426;28;20209;-88
2021/06/08 02:21:33;;;;;;;1.47;0.60;;;19.40;99.90;;;;;;5026548;28;20291;-89
2021/06/08 02:24:07;;;;;;;1.73;0.67;;;18.90;99.90;;;;;;5038306;28;20209;-88
2021/06/08 02:26:42;;;;;;;1.40;0.53;;;18.90;99.90;;;;;;5008009;28;20217;-88
2021/06/08 02:29:14;;;;;;;2.80;0.60;;;18.50;99.90;;;;;;5000778;28;20210;-88
2021/06/08 02:31:47;;;;;;;1.83;0.70;;;18.50;99.90;;;;;;5001143;28;20322;-89
2021/06/08 02:34:18;;;;;;;2.10;0.60;;;18.20;99.90;;;;;;4998931;28;20671;-88
2021/06/08 02:36:50;;;;;;;2.17;0.70;;;18.10;99.90;;;;;;5000314;28;20230;-90
2021/06/08 02:39:23;;;;;;;1.87;0.90;;;18.10;99.90;;;;;;5031250;28;20213;-88
2021/06/08 02:41:55;;;;;;;1.03;0.60;;;17.80;99.90;;;;;;5018830;28;20288;-89
2021/06/08 02:44:26;;;;;;;2.30;0.70;;;17.40;99.90;;;;;;5021013;28;20675;-89
2021/06/08 02:47:00;;;;;;;0.70;0.57;;;17.20;99.90;;;;;;4999075;28;20269;-88
2021/06/08 02:49:40;;;;;;;2.13;0.67;;;17.10;99.90;;;;;;4999823;28;20225;-88
2021/06/08 02:52:11;;;;;;;2.47;0.70;;;17.00;99.90;;;;;;4999035;28;20233;-88
2021/06/08 02:54:44;;;;;;;1.27;0.60;;;16.80;99.90;;;;;;5004985;28;20206;-88
2021/06/08 02:57:14;;;;;;;2.23;1.00;;;16.60;99.90;;;;;;4999336;28;20234;-89
2021/06/08 02:59:47;;;;;;;3.63;1.20;;;16.60;99.90;;;;;;5003398;28;20206;-89
2021/06/08 03:02:20;;;;;;;2.10;0.90;;;16.50;99.90;;;;;;5007498;28;20228;-89
2021/06/08 03:04:57;;;;;;;2.17;1.10;;;16.30;99.90;;;;;;5018331;28;20296;-89
2021/06/08 03:07:27;;;;;;;2.60;1.10;;;16.30;99.90;;;;;;5020699;28;20229;-88
2021/06/08 03:10:06;;;;;;;1.67;0.93;;;16.10;99.90;;;;;;5016534;28;20236;-89
2021/06/08 03:12:40;;;;;;;1.33;0.80;;;16.00;99.90;;;;;;5025324;28;20296;-89
2021/06/08 03:15:11;;;;;;;2.90;1.00;;;15.90;99.90;;;;;;5034009;28;20193;-89
2021/06/08 03:17:45;;;;;;;1.07;0.70;;;15.80;99.90;;;;;;5033547;28;20233;-89
2021/06/08 03:20:24;;;;;;;2.67;0.90;;;15.80;99.90;;;;;;5021003;28;20206;-89
2021/06/08 03:23:00;;;;;;;2.17;0.80;;;15.60;99.90;;;;;;5019773;28;20194;-89
2021/06/08 03:25:35;;;;;;;2.70;0.93;;;15.50;99.90;;;;;;5019879;28;20209;-89
2021/06/08 03:28:08;;;;;;;1.13;0.67;;;15.30;99.90;;;;;;5000273;28;20272;-89
2021/06/08 03:30:39;;;;;;;3.47;1.00;;;15.30;99.90;;;;;;4998017;28;20667;-89
2021/06/08 03:33:10;;;;;;;2.03;1.03;;;15.20;99.90;;;;;;4998077;28;20714;-90
2021/06/08 03:35:42;;;;;;;1.77;0.80;;;15.00;99.90;;;;;;5031533;28;20235;-88
2021/06/08 03:38:13;;;;;;;1.03;0.70;;;14.90;99.90;;;;;;5016797;28;20624;-89
2021/06/08 03:40:46;;;;;;;1.00;0.63;;;14.80;99.90;;;;;;5003637;28;20567;-88
2021/06/08 03:43:17;;;;;;;1.30;0.60;;;14.60;99.90;;;;;;4997271;28;20246;-88
2021/06/08 03:45:49;;;;;;;4.77;0.80;;;14.60;99.90;;;;;;5017404;28;20617;-88
2021/06/08 03:48:21;;;;;;;2.00;0.80;;;14.50;99.90;;;;;;5002533;28;20264;-88
2021/06/08 03:50:52;;;;;;;1.00;0.50;;;14.30;99.90;;;;;;4998753;28;20302;-88
2021/06/08 03:53:25;;;;;;;1.80;0.50;;;14.30;99.90;;;;;;5018692;28;20283;-88
2021/06/08 03:55:57;;;;;;;2.10;0.70;;;14.20;99.90;;;;;;5018729;28;20194;-88
2021/06/08 03:58:27;;;;;;;0.83;0.40;;;14.10;99.90;;;;;;5011703;28;20214;-88
2021/06/08 04:01:00;;;;;;;2.30;0.80;;;14.00;99.90;;;;;;4995722;28;20261;-88
2021/06/08 04:03:31;;;;;;;1.40;0.40;;;13.90;99.90;;;;;;4997252;28;20210;-88
2021/06/08 04:06:02;;;;;;;0.97;0.50;;;13.80;99.90;;;;;;4997370;28;20249;-88
2021/06/08 04:08:32;;;;;;;1.27;0.70;;;13.70;99.90;;;;;;4997237;28;20301;-88
2021/06/08 04:11:05;;;;;;;1.33;0.53;;;13.60;99.90;;;;;;4996108;28;20306;-89
2021/06/08 04:13:35;;;;;;;4.17;0.83;;;13.50;99.90;;;;;;4996627;28;20249;-88
2021/06/08 04:16:07;;;;;;;1.63;0.70;;;13.40;99.90;;;;;;5015222;28;20285;-88
2021/06/08 04:18:39;;;;;;;1.70;0.70;;;13.30;99.90;;;;;;5017870;28;20209;-88
2021/06/08 04:21:10;;;;;;;1.90;1.10;;;13.30;99.90;;;;;;4998750;28;20238;-88
2021/06/08 04:23:41;;;;;;;2.07;0.87;;;13.20;99.90;;;;;;5003346;28;20392;-88
2021/06/08 04:26:13;;;;;;;1.70;0.70;;;13.10;99.90;;;;;;5000388;28;20284;-88
2021/06/08 04:28:44;;;;;;;2.33;0.70;;;12.90;99.90;;;;;;4999790;28;20230;-88
2021/06/08 04:31:15;;;;;;;1.13;0.63;;;13.00;99.90;;;;;;5003504;28;20218;-88
2021/06/08 04:33:46;;;;;;;1.30;0.63;;;13.00;99.90;;;;;;4995590;28;20606;-88
2021/06/08 04:36:18;;;;;;;1.60;0.80;;;13.00;99.90;;;;;;5008581;28;20229;-88
2021/06/08 04:38:49;;;;;;;1.50;0.67;;;12.90;99.90;;;;;;5004188;28;20308;-88
2021/06/08 04:41:25;;;;;;;0.73;0.60;;;12.80;99.90;;;;;;5003494;28;20296;-89
2021/06/08 04:43:55;;;;;;;1.60;0.80;;;12.80;99.90;;;;;;5010307;28;20308;-89
2021/06/08 04:46:26;;;;;;;0.73;0.60;;;12.80;99.90;;;;;;5014718;28;20229;-88
2021/06/08 04:48:57;;;;;;;1.13;0.67;;;12.70;99.90;;;;;;5010909;28;20238;-88
2021/06/08 04:51:30;;;;;;;1.43;0.73;;;12.70;99.90;;;;;;4999081;28;20289;-88
2021/06/08 04:54:01;;;;;;;0.90;0.60;;;12.70;99.90;;;;;;5013260;28;20230;-89
2021/06/08 04:56:34;;;;;;;2.00;0.80;;;12.60;99.90;;;;;;5014667;28;20240;-88
2021/06/08 04:59:05;;;;;;;2.17;0.83;;;12.50;99.90;;;;;;5005482;28;20810;-87
2021/06/08 05:01:42;;;;;;;1.37;0.70;;;12.40;99.90;;;;;;5014860;28;20206;-88
2021/06/08 05:04:16;;;;;;;1.93;0.70;;;12.30;99.90;;;;;;5017097;28;20212;-89
2021/06/08 05:06:48;;;;;;;6.47;1.60;;;12.20;99.90;;;;;;5007050;28;20218;-88
2021/06/08 05:09:23;;;;;;;2.20;0.90;;;12.20;99.90;;;;;;5002554;28;20206;-88
2021/06/08 05:12:00;;;;;;;2.30;0.87;;;12.40;99.90;;;;;;5010297;28;20233;-88
2021/06/08 05:14:32;;;;;;;1.67;0.97;;;12.20;99.90;;;;;;5002839;28;20236;-89
2021/06/08 05:17:04;;;;;;;1.77;0.90;;;12.10;99.90;;;;;;4995639;28;20202;-89
2021/06/08 05:19:36;;;;;;;1.80;0.73;;;12.00;99.90;;;;;;4995192;28;20214;-88
2021/06/08 05:22:08;;;;;;;1.33;0.90;;;12.00;99.90;;;;;;4996657;28;20262;-90
2021/06/08 05:24:40;;;;;;;1.23;0.63;;;12.00;99.90;;;;;;4995356;28;20313;-88
2021/06/08 05:27:13;;;;;;;2.33;1.10;;;12.00;99.90;;;;;;5005724;28;20206;-91
2021/06/08 05:29:44;;;;;;;3.10;1.10;;;12.00;99.90;;;;;;5002740;28;20206;-92
2021/06/08 05:32:15;;;;;;;0.80;0.53;;;12.00;99.90;;;;;;4996594;28;20233;-91
2021/06/08 05:34:47;;;;;;;2.27;0.90;;;12.00;99.90;;;;;;5012471;28;20320;-91
2021/06/08 05:37:19;;;;;;;1.10;0.63;;;12.00;99.90;;;;;;5013939;28;20626;-92
2021/06/08 05:39:49;;;;;;;1.33;0.60;;;12.00;99.90;;;;;;4995442;28;20294;-92
2021/06/08 05:42:21;;;;;;;1.43;0.70;;;12.00;99.90;;;;;;5004737;28;20237;-92
2021/06/08 05:44:54;;;;;;;2.10;0.77;;;12.10;99.90;;;;;;5016767;28;20249;-91
2021/06/08 05:47:25;;;;;;;1.30;0.70;;;12.00;99.90;;;;;;5017398;28;20289;-92
2021/06/08 05:49:57;;;;;;;1.77;1.00;;;12.00;99.90;;;;;;4999518;28;20210;-91
2021/06/08 05:52:31;;;;;;;2.23;0.73;;;12.00;99.90;;;;;;5000844;28;20285;-91
2021/06/08 05:55:03;;;;;;;3.67;1.00;;;12.00;99.90;;;;;;5034001;28;20315;-91
2021/06/08 05:57:36;;;;;;;2.03;0.83;;;12.00;99.90;;;;;;5035513;28;20291;-91
2021/06/08 06:00:07;;;;;;;1.87;0.97;;;12.00;99.90;;;;;;5036199;28;20608;-92
2021/06/08 06:02:38;;;;;;;1.20;0.83;;;11.90;99.90;;;;;;5034731;28;20615;-92
2021/06/08 06:05:12;;;;;;;2.37;0.90;;;11.90;99.90;;;;;;5015945;28;20244;-92
2021/06/08 06:07:43;;;;;;;1.90;0.90;;;11.90;99.90;;;;;;5013461;28;20268;-92
2021/06/08 06:10:15;;;;;;;4.87;0.90;;;12.00;99.90;;;;;;4997763;28;20281;-92
2021/06/08 06:12:49;;;;;;;3.67;1.10;;;12.00;99.90;;;;;;5027645;28;20190;-92
2021/06/08 06:15:21;;;;;;;3.50;1.10;;;12.00;99.90;;;;;;5016700;28;20228;-92
2021/06/08 06:17:56;;;;;;;2.30;0.90;;;12.00;99.90;;;;;;5019414;28;20233;-94
2021/06/08 06:23:19;;;;;;;2.03;1.17;;;12.00;99.90;;;;;;5033515;28;20667;-92
2021/06/08 06:25:53;;;;;;;2.07;1.00;;;12.00;99.90;;;;;;5031592;28;20267;-93
2021/06/08 06:28:28;;;;;;;2.27;0.90;;;12.00;99.90;;;;;;5012495;28;20206;-93
2021/06/08 06:31:00;;;;;;;2.57;1.00;;;12.10;99.90;;;;;;5011024;28;20257;-92
2021/06/08 06:33:34;;;;;;;1.40;0.90;;;12.10;99.90;;;;;;5022765;28;20233;-92
2021/06/08 06:36:08;;;;;;;3.60;1.40;;;12.20;99.90;;;;;;5027949;28;20206;-93
2021/06/08 06:38:54;;;;;;;3.30;1.13;;;12.20;99.90;;;;;;5016098;28;20202;-92
2021/06/08 06:41:43;;;;;;;2.90;1.40;;;12.20;99.90;;;;;;5025340;28;20208;-92
2021/06/08 06:44:24;;;;;;;2.57;1.17;;;12.10;99.90;;;;;;5042773;28;20240;-90
2021/06/08 06:46:59;;;;;;;1.83;1.10;;;12.10;99.90;;;;;;5017018;28;20205;-92
2021/06/08 06:49:41;;;;;;;2.20;1.20;;;12.10;99.90;;;;;;5025090;28;20198;-92
2021/06/08 06:52:13;;;;;;;2.60;1.13;;;12.10;99.90;;;;;;5027507;28;20213;-92
2021/06/08 06:54:49;;;;;;;3.97;1.60;;;12.00;99.90;;;;;;5022265;28;20268;-92
2021/06/08 06:57:23;;;;;;;3.03;1.20;;;12.00;99.90;;;;;;5026454;28;20216;-92
2021/06/08 06:59:57;;;;;;;2.37;1.30;;;12.00;99.90;;;;;;5011362;28;20234;-92
2021/06/08 07:02:28;;;;;;;3.17;1.20;;;12.00;99.90;;;;;;5014494;28;20216;-92
2021/06/08 07:05:03;;;;;;;2.03;1.07;;;12.00;99.90;;;;;;5006664;28;20226;-92
2021/06/08 07:07:38;;;;;;;2.77;1.40;;;12.00;99.90;;;;;;5015640;28;20209;-92
2021/06/08 07:10:11;;;;;;;5.97;1.33;;;12.00;99.90;;;;;;5014321;28;20232;-92
2021/06/08 07:12:42;;;;;;;1.70;1.17;;;11.90;99.90;;;;;;4997850;28;20234;-92
2021/06/08 07:15:18;;;;;;;3.47;1.27;;;11.90;99.90;;;;;;4994506;28;20239;-92
2021/06/08 07:17:49;;;;;;;1.90;1.10;;;11.90;99.90;;;;;;4995581;28;20226;-91
2021/06/08 07:20:20;;;;;;;4.67;1.10;;;11.90;99.90;;;;;;5008786;28;20221;-91
2021/06/08 07:22:51;;;;;;;2.50;1.17;;;11.80;99.90;;;;;;5016349;28;20725;-91
2021/06/08 07:25:22;;;;;;;3.17;1.13;;;11.80;99.90;;;;;;5018194;28;20248;-92
2021/06/08 07:27:54;;;;;;;2.70;1.10;;;11.70;99.90;;;;;;5016231;28;20237;-91
2021/06/08 07:30:27;;;;;;;2.40;1.17;;;11.70;99.90;;;;;;4996556;28;20214;-91
2021/06/08 07:33:10;;;;;;;2.77;1.03;;;11.60;99.90;;;;;;4998574;28;20253;-92
2021/06/08 07:35:55;;;;;;;1.90;0.87;;;11.60;99.90;;;;;;5012428;28;20252;-92
2021/06/08 07:38:33;;;;;;;2.13;1.10;;;11.60;99.90;;;;;;5001638;28;20255;-92
2021/06/08 07:41:06;;;;;;;1.97;1.00;;;11.60;99.90;;;;;;4997021;28;20252;-91
2021/06/08 07:43:41;;;;;;;3.13;1.20;;;11.60;99.90;;;;;;4998246;28;20642;-92
2021/06/08 07:46:17;;;;;;;2.67;1.20;;;11.50;99.90;;;;;;5004756;28;20709;-93
2021/06/08 07:48:53;;;;;;;3.20;1.20;;;11.50;99.90;;;;;;5018222;28;20283;-93
2021/06/08 07:51:24;;;;;;;3.43;0.87;;;11.40;99.90;;;;;;5007647;28;20714;-93
2021/06/08 07:53:57;;;;;;;1.83;0.90;;;11.40;99.90;;;;;;5016143;28;20202;-92
2021/06/08 07:56:29;;;;;;;2.83;1.50;;;11.40;99.90;;;;;;4997927;28;20229;-92
2021/06/08 07:59:00;;;;;;;4.67;1.03;;;11.30;99.90;;;;;;4998119;28;20222;-92
2021/06/08 08:01:33;;;;;;;2.83;1.00;;;11.30;99.90;;;;;;4996871;28;20245;-93
2021/06/08 08:04:09;;;;;;;4.50;1.27;;;11.40;99.90;;;;;;5004335;28;20686;-93
2021/06/08 08:06:39;;;;;;;2.10;0.93;;;11.50;99.90;;;;;;4996886;28;20238;-92
2021/06/08 08:09:10;;;;;;;2.47;1.00;;;11.60;99.90;;;;;;4998637;28;20236;-93
2021/06/08 08:11:43;;;;;;;3.13;0.97;;;11.60;99.90;;;;;;5011909;28;20283;-92
2021/06/08 08:14:16;;;;;;;2.97;1.13;;;11.60;99.90;;;;;;5025136;28;20682;-90
2021/06/08 08:16:50;;;;;;;3.10;1.20;;;11.60;99.90;;;;;;5035974;28;20218;-92
2021/06/08 08:19:24;;;;;;;2.43;1.17;;;11.60;99.90;;;;;;5024087;28;20247;-92
2021/06/08 08:21:55;;;;;;;2.73;1.10;;;11.60;99.90;;;;;;5031561;28;20225;-93
2021/06/08 08:24:26;;;;;;;1.73;0.90;;;11.60;99.90;;;;;;5024313;28;20221;-92
2021/06/08 08:26:57;;;;;;;2.63;1.07;;;11.50;99.90;;;;;;5020010;28;20263;-92
2021/06/08 08:29:28;;;;;;;3.10;0.80;;;11.50;99.90;;;;;;5027760;28;20193;-92
2021/06/08 08:32:00;;;;;;;3.73;1.07;;;11.40;99.90;;;;;;5023420;28;20201;-91
2021/06/08 08:34:32;;;;;;;4.37;0.97;;;11.50;99.90;;;;;;5038136;28;20229;-92
2021/06/08 08:37:03;;;;;;;2.03;0.90;;;11.50;99.90;;;;;;5022838;28;20212;-92
2021/06/08 08:39:33;;;;;;;4.77;1.20;;;11.50;99.90;;;;;;5009840;28;20268;-92
2021/06/08 08:42:05;;;;;;;1.60;0.97;;;11.40;99.90;;;;;;5008243;28;20742;-92
2021/06/08 08:44:35;;;;;;;2.10;0.97;;;11.40;99.90;;;;;;5021798;28;20217;-93
2021/06/08 08:49:44;;;;;;;1.87;0.70;;;11.40;99.90;;;;;;5009668;23;20274;-92
2021/06/08 08:52:17;;;;;;;2.47;1.30;;;11.30;99.90;;;;;;4991969;28;20218;-93
2021/06/08 08:54:49;;;;;;;1.37;1.00;;;11.30;99.90;;;;;;4998146;28;20298;-92
2021/06/08 08:57:21;;;;;;;2.03;1.07;;;11.20;99.90;;;;;;5008139;28;20253;-92
2021/06/08 08:59:51;;;;;;;2.77;1.00;;;11.10;99.90;;;;;;5017914;28;20202;-92
2021/06/08 09:02:39;;;;;;;5.27;1.23;;;11.00;99.90;;;;;;5018496;28;20221;-92
2021/06/08 09:05:14;;;;;;;6.13;1.20;;;10.90;99.90;;;;;;5007792;28;20355;-92
2021/06/08 09:07:45;;;;;;;2.03;1.00;;;10.80;99.90;;;;;;4996875;28;20210;-90
2021/06/08 09:10:20;;;;;;;3.90;1.20;;;10.80;99.90;;;;;;4997547;28;20206;-92
2021/06/08 09:12:50;;;;;;;2.27;1.03;;;10.60;99.90;;;;;;5012133;28;20209;-90
2021/06/08 09:15:22;;;;;;;3.07;1.37;;;10.60;99.90;;;;;;4997092;28;20242;-89
2021/06/08 09:17:55;;;;;;;1.53;0.73;;;10.50;99.90;;;;;;4999586;28;20242;-90
2021/06/08 09:20:29;;;;;;;3.13;1.20;;;10.40;99.90;;;;;;4995676;28;20301;-91
2021/06/08 09:23:01;;;;;;;1.73;1.10;;;10.30;99.90;;;;;;4995896;28;20222;-90
2021/06/08 09:25:45;;;;;;;1.83;1.00;;;10.30;99.90;;;;;;4995551;28;20226;-90
2021/06/08 09:28:29;;;;;;;2.60;1.20;;;10.20;99.90;;;;;;4994770;28;20212;-91
2021/06/08 09:31:14;;;;;;;0.93;0.87;;;10.20;99.90;;;;;;4996037;28;20229;-91
2021/06/08 09:33:46;;;;;;;2.20;1.10;;;10.00;99.90;;;;;;4960410;28;20239;-90
2021/06/08 09:36:20;;;;;;;6.37;1.20;;;10.00;99.90;;;;;;4957841;28;20262;-91
2021/06/08 09:38:54;;;;;;;1.30;0.83;;;9.90;99.90;;;;;;4958565;28;20206;-90
2021/06/08 09:41:26;;;;;;;1.70;1.17;;;9.90;99.90;;;;;;4969540;28;20241;-92
2021/06/08 09:44:02;;;;;;;3.37;1.03;;;9.80;99.90;;;;;;4987093;28;20249;-91
2021/06/08 09:46:45;;;;;;;3.80;1.10;;;9.80;99.90;;;;;;4986833;28;20215;-91
2021/06/08 09:49:18;;;;;;;3.43;1.10;;;9.70;99.90;;;;;;4976630;28;20218;-91
2021/06/08 09:51:56;;;;;;;2.60;0.80;;;9.70;99.90;;;;;;4975429;28;20211;-91
2021/06/08 09:54:32;;;;;;;1.70;1.10;;;9.60;99.90;;;;;;4976161;28;20206;-91
2021/06/08 09:57:16;;;;;;;1.93;0.90;;;9.50;99.90;;;;;;4976218;28;20678;-90
2021/06/08 09:59:50;;;;;;;1.70;1.10;;;9.50;99.90;;;;;;4974460;28;20226;-91
2021/06/08 10:02:35;;;;;;;4.53;1.10;;;9.40;99.90;;;;;;4977778;28;20207;-92
2021/06/08 10:05:32;;;;;;;1.73;0.80;;;9.40;99.90;;;;;;4975949;28;20242;-92
2021/06/08 10:08:11;;;;;;;1.93;0.80;;;9.40;99.90;;;;;;4953358;28;20649;-92
2021/06/08 10:10:44;;;;;;;2.97;1.00;;;9.30;99.90;;;;;;4974770;28;20233;-92
2021/06/08 10:13:18;;;;;;;3.43;1.00;;;9.40;99.90;;;;;;4977930;28;20297;-91
2021/06/08 10:15:57;;;;;;;2.47;0.83;;;9.30;99.90;;;;;;4975810;28;20281;-91
2021/06/08 10:18:41;;;;;;;1.23;0.90;;;9.30;99.90;;;;;;4976043;28;20269;-91
2021/06/08 10:21:12;;;;;;;2.20;1.07;;;9.30;99.90;;;;;;4975660;28;20293;-91
2021/06/08 10:23:45;;;;;;;2.93;1.03;;;9.30;99.90;;;;;;4976138;28;20298;-91
2021/06/08 10:26:16;;;;;;;2.87;0.90;;;9.20;99.90;;;;;;4976020;28;20215;-91
2021/06/08 10:28:46;;;;;;;1.00;0.73;;;9.20;99.90;;;;;;4976642;28;20584;-91
2021/06/08 10:31:18;;;;;;;5.27;1.37;;;9.20;99.90;;;;;;4975442;28;20210;-91
2021/06/08 10:33:59;;;;;;;1.67;0.80;;;9.20;99.90;;;;;;4976348;28;20735;-91
2021/06/08 10:36:33;;;;;;;2.53;0.80;;;9.20;99.90;;;;;;4976548;28;20238;-92
2021/06/08 10:39:08;;;;;;;3.47;0.90;;;9.10;99.90;;;;;;4976176;28;20207;-92
2021/06/08 10:41:41;;;;;;;4.10;1.00;;;9.10;99.90;;;;;;4975593;28;20230;-90
2021/06/08 10:44:20;;;;;;;1.80;0.73;;;9.10;99.90;;;;;;4976180;28;20396;-90
2021/06/08 10:46:53;;;;;;;4.30;0.80;;;9.10;99.90;;;;;;4989419;28;20225;-92
2021/06/08 10:49:35;;;;;;;1.90;1.00;;;9.00;99.90;;;;;;4995781;28;20230;-91
2021/06/08 10:52:07;;;;;;;1.60;0.60;;;9.00;99.90;;;;;;4995359;28;20202;-91
2021/06/08 10:54:44;;;;;;;2.83;0.83;;;9.00;99.90;;;;;;4982596;28;20302;-91
2021/06/08 10:57:16;;;;;;;2.23;0.90;;;9.00;99.90;;;;;;4981095;28;20245;-92
2021/06/08 10:59:49;;;;;;;2.53;0.83;;;8.90;99.90;;;;;;4979746;28;20675;-91
2021/06/08 11:02:47;;;;;;;1.37;0.67;;;8.90;99.90;;;;;;4960038;28;20287;-91
2021/06/08 11:05:19;;;;;;;2.70;1.03;;;8.90;99.90;;;;;;4959362;28;20208;-90
2021/06/08 11:07:56;;;;;;;2.43;1.43;;;8.90;99.90;;;;;;4959567;28;20301;-90
2021/06/08 11:11:04;;;;;;;2.77;0.90;;;8.80;99.90;;;;;;4971656;28;20655;-90
2021/06/08 11:13:54;;;;;;;3.47;0.70;;;8.80;99.90;;;;;;4979352;28;20290;-89
2021/06/08 11:16:31;;;;;;;2.17;0.73;;;8.80;99.90;;;;;;4978446;28;20261;-90
2021/06/08 11:19:02;;;;;;;5.20;0.87;;;8.80;99.90;;;;;;4978658;28;20291;-90
2021/06/08 11:21:36;;;;;;;3.00;0.80;;;8.80;99.90;;;;;;4978066;28;20210;-90
2021/06/08 11:24:36;;;;;;;1.90;1.03;;;8.80;99.90;;;;;;4965354;28;20271;-89
2021/06/08 11:27:09;;;;;;;3.13;0.90;;;8.80;99.90;;;;;;4978454;28;20215;-90
2021/06/08 11:29:48;;;;;;;2.17;0.97;;;8.80;99.90;;;;;;4977733;28;20242;-93
2021/06/08 11:32:47;;;;;;;3.97;1.07;;;8.80;99.90;;;;;;4978447;28;20218;-90
2021/06/08 11:35:34;;;;;;;2.60;1.30;;;8.90;99.90;;;;;;4979417;28;20242;-90
2021/06/08 11:38:07;;;;;;;2.93;1.10;;;8.90;99.90;;;;;;4978731;28;20226;-90
2021/06/08 11:40:59;;;;;;;3.03;0.97;;;8.80;99.90;;;;;;4978066;28;20299;-90
2021/06/08 11:43:53;;;;;;;3.00;1.20;;;8.90;99.90;;;;;;4977212;28;20209;-90
2021/06/08 11:46:30;;;;;;;4.57;1.10;;;8.90;99.90;;;;;;4977923;28;20679;-90
2021/06/08 11:49:17;;;;;;;2.17;1.00;;;8.90;99.90;;;;;;4978289;28;20258;-90
2021/06/08 11:52:13;;;;;;;2.70;1.10;;;9.00;99.90;;;;;;4977437;28;20222;-90
2021/06/08 11:54:51;;;;;;;3.63;0.90;;;9.00;99.90;;;;;;4977362;28;20242;-90
2021/06/08 11:57:37;;;;;;;2.47;1.00;;;9.00;99.90;;;;;;4978410;28;20266;-90
2021/06/08 12:00:12;;;;;;;1.70;0.97;;;9.00;99.90;;;;;;4977476;28;20238;-90
2021/06/08 12:02:46;;;;;;;3.13;1.27;;;9.00;99.90;;;;;;5486129;23;20213;-89
2021/06/08 12:05:21;;;;;;;2.10;0.77;;;9.00;99.90;;;;;;4977168;28;20210;-90
2021/06/08 12:07:58;;;;;;;2.73;1.10;;;9.00;99.90;;;;;;4977597;28;20219;-90
2021/06/08 12:10:32;;;;;;;2.07;0.73;;;9.00;99.90;;;;;;4977451;28;20276;-91
2021/06/08 12:13:08;;;;;;;4.00;0.83;;;9.10;99.90;;;;;;4978213;28;20222;-91
2021/06/08 12:15:42;;;;;;;3.63;1.10;;;9.00;99.90;;;;;;4977251;28;20249;-90
2021/06/08 12:18:16;;;;;;;3.07;0.97;;;9.00;99.90;;;;;;4977811;28;20297;-90
2021/06/08 12:20:55;;;;;;;1.67;0.90;;;9.00;99.90;;;;;;4980582;28;20218;-90
2021/06/08 12:23:28;;;;;;;4.73;1.03;;;9.00;99.90;;;;;;4983187;28;20277;-91
2021/06/08 12:26:07;;;;;;;3.10;1.10;;;9.00;99.90;;;;;;4977497;28;20298;-91
2021/06/08 12:28:38;;;;;;;2.17;0.80;;;9.10;99.90;;;;;;4977257;28;20310;-91
2021/06/08 12:31:16;;;;;;;2.43;0.93;;;9.10;99.90;;;;;;4978553;28;20233;-90
2021/06/08 12:33:48;;;;;;;1.83;0.90;;;9.20;99.90;;;;;;4979225;28;20238;-90
2021/06/08 12:36:18;;;;;;;2.27;0.83;;;9.20;99.90;;;;;;4977798;28;20235;-90
2021/06/08 12:38:50;;;;;;;2.03;0.73;;;9.30;99.90;;;;;;4976213;28;20298;-92
2021/06/08 12:41:25;;;;;;;1.23;0.90;;;9.40;99.90;;;;;;4976850;28;20215;-91
2021/06/08 12:43:57;;;;;;;1.73;0.77;;;9.40;99.90;;;;;;4977241;28;20281;-91
2021/06/08 12:46:31;;;;;;;2.90;1.00;;;9.40;99.90;;;;;;4960490;28;20250;-91
2021/06/08 12:49:05;;;;;;;3.23;1.10;;;9.40;99.90;;;;;;4977554;28;20203;-91
2021/06/08 12:51:38;;;;;;;1.33;1.00;;;9.40;99.90;;;;;;4976809;28;20245;-91
2021/06/08 12:54:11;;;;;;;2.40;0.93;;;9.50;99.90;;;;;;4977212;28;20279;-90
2021/06/08 12:56:41;;;;;;;3.97;1.10;;;9.50;99.90;;;;;;4975952;28;20317;-91
2021/06/08 12:59:12;;;;;;;3.57;0.93;;;9.60;99.90;;;;;;4977412;28;20244;-91
2021/06/08 13:01:46;;;;;;;3.83;1.00;;;9.50;99.90;;;;;;4980888;28;20211;-91
2021/06/08 13:04:17;;;;;;;2.67;1.20;;;9.60;99.90;;;;;;4993933;28;20223;-91
2021/06/08 13:06:48;;;;;;;4.30;1.10;;;9.70;99.90;;;;;;4978739;28;20231;-89
2021/06/08 13:09:23;;;;;;;3.30;1.00;;;9.70;99.90;;;;;;4967263;28;20243;-89
2021/06/08 13:12:07;;;;;;;4.10;1.10;;;9.80;99.90;;;;;;4967561;28;20222;-89
2021/06/08 13:14:39;;;;;;;2.60;0.80;;;9.80;99.90;;;;;;4983948;28;20221;-89
2021/06/08 13:17:28;;;;;;;2.80;0.90;;;9.90;99.90;;;;;;4983741;28;20262;-90
2021/06/08 13:19:59;;;;;;;1.97;0.93;;;10.00;99.90;;;;;;4984073;28;20278;-89
2021/06/08 13:22:31;;;;;;;3.27;1.00;;;10.00;99.90;;;;;;4980212;28;20211;-90
2021/06/08 13:25:02;;;;;;;3.63;1.13;;;10.00;99.90;;;;;;4977881;28;20211;-89
2021/06/08 13:27:32;;;;;;;3.73;0.90;;;10.00;99.90;;;;;;4977974;28;20242;-90
2021/06/08 13:30:03;;;;;;;3.17;1.33;;;10.10;99.90;;;;;;4978638;28;20278;-90
2021/06/08 13:32:37;;;;;;;4.23;0.93;;;10.20;99.90;;;;;;4968987;28;20291;-91
2021/06/08 13:35:12;;;;;;;4.00;1.20;;;10.30;99.90;;;;;;4958536;28;20298;-92
2021/06/08 13:37:46;;;;;;;3.40;1.17;;;10.40;99.90;;;;;;4957268;28;20298;-89
2021/06/08 13:40:20;;;;;;;4.57;1.20;;;10.40;99.90;;;;;;4956950;28;20219;-91
2021/06/08 13:43:04;;;;;;;4.40;1.10;;;10.40;99.90;;;;;;4957263;28;20298;-92